sensor_id;sensor_type;location;lat;lon;timestamp;temperature;humidity
42905;DHT22;28550;51.228;4.528;2023-06-24T00:00:17;17.90;1.00
42905;DHT22;28550;51.228;4.528;2023-06-24T00:03:08;17.80;1.00
42905;DHT22;28550;51.228;4.528;2023-06-24T00:05:44;17.90;1.00
42905;DHT22;28550;51.228;4.528;2023-06-24T00:12:06;17.70;1.00
42905;DHT22;28550;51.228;4.528;2023-06-24T00:15:12;17.60;6.10
42905;DHT22;28550;51.228;4.528;2023-06-24T00:21:32;17.50;21.70
42905;DHT22;28550;51.228;4.528;2023-06-24T01:32:49;16.40;85.60
42905;DHT22;28550;51.228;4.528;2023-06-24T01:35:28;16.30;86.10
42905;DHT22;28550;51.228;4.528;2023-06-24T01:38:51;16.30;87.10
42905;DHT22;28550;51.228;4.528;2023-06-24T01:42:06;16.30;86.70
42905;DHT22;28550;51.228;4.528;2023-06-24T01:44:38;16.30;90.20
42905;DHT22;28550;51.228;4.528;2023-06-24T03:50:49;15.30;99.90
42905;DHT22;28550;51.228;4.528;2023-06-24T03:53:23;15.40;99.30
42905;DHT22;28550;51.228;4.528;2023-06-24T03:56:20;15.40;99.90
42905;DHT22;28550;51.228;4.528;2023-06-24T03:59:28;15.50;99.90
42905;DHT22;28550;51.228;4.528;2023-06-24T04:01:57;15.40;99.00
42905;DHT22;28550;51.228;4.528;2023-06-24T04:11:05;15.40;99.90
42905;DHT22;28550;51.228;4.528;2023-06-24T04:16:40;15.40;99.90
42905;DHT22;28550;51.228;4.528;2023-06-24T04:19:35;15.40;99.90
42905;DHT22;28550;51.228;4.528;2023-06-24T04:22:12;15.50;99.90
42905;DHT22;28550;51.228;4.528;2023-06-24T04:24:38;15.60;99.90
42905;DHT22;28550;51.228;4.528;2023-06-24T04:27:12;15.70;99.60
42905;DHT22;28550;51.228;4.528;2023-06-24T04:30:02;15.60;99.90
42905;DHT22;28550;51.228;4.528;2023-06-24T04:32:36;15.70;99.70
42905;DHT22;28550;51.228;4.528;2023-06-24T04:38:30;15.80;99.30
42905;DHT22;28550;51.228;4.528;2023-06-24T04:40:58;15.90;99.20
42905;DHT22;28550;51.228;4.528;2023-06-24T04:43:25;16.00;97.10
42905;DHT22;28550;51.228;4.528;2023-06-24T04:45:56;15.90;98.40
42905;DHT22;28550;51.228;4.528;2023-06-24T04:48:35;16.00;98.30
42905;DHT22;28550;51.228;4.528;2023-06-24T04:51:05;16.10;98.00
42905;DHT22;28550;51.228;4.528;2023-06-24T04:53:33;16.20;92.90
42905;DHT22;28550;51.228;4.528;2023-06-24T04:56:22;16.30;91.40
42905;DHT22;28550;51.228;4.528;2023-06-24T04:58:48;16.40;86.90
42905;DHT22;28550;51.228;4.528;2023-06-24T05:01:37;16.40;86.00
42905;DHT22;28550;51.228;4.528;2023-06-24T05:04:03;16.50;81.90
42905;DHT22;28550;51.228;4.528;2023-06-24T05:06:28;16.60;70.00
42905;DHT22;28550;51.228;4.528;2023-06-24T05:08:56;16.70;65.50
42905;DHT22;28550;51.228;4.528;2023-06-24T05:15:15;16.90;53.80
42905;DHT22;28550;51.228;4.528;2023-06-24T05:17:45;17.10;48.10
42905;DHT22;28550;51.228;4.528;2023-06-24T05:20:23;17.30;34.40
42905;DHT22;28550;51.228;4.528;2023-06-24T05:22:49;17.40;33.60
42905;DHT22;28550;51.228;4.528;2023-06-24T05:28:48;17.80;22.50
42905;DHT22;28550;51.228;4.528;2023-06-24T05:31:23;18.00;12.80
42905;DHT22;28550;51.228;4.528;2023-06-24T05:34:24;18.10;10.60
42905;DHT22;28550;51.228;4.528;2023-06-24T05:37:04;18.20;1.40
42905;DHT22;28550;51.228;4.528;2023-06-24T05:39:49;18.30;1.00
42905;DHT22;28550;51.228;4.528;2023-06-24T05:42:18;18.50;1.00
42905;DHT22;28550;51.228;4.528;2023-06-24T05:45:13;18.50;1.00
42905;DHT22;28550;51.228;4.528;2023-06-24T05:54:02;18.70;1.00
42905;DHT22;28550;51.228;4.528;2023-06-24T05:56:28;19.00;1.00
42905;DHT22;28550;51.228;4.528;2023-06-24T05:59:03;19.00;1.00
42905;DHT22;28550;51.228;4.528;2023-06-24T06:01:54;19.10;1.00
42905;DHT22;28550;51.228;4.528;2023-06-24T06:04:43;19.20;1.00
42905;DHT22;28550;51.228;4.528;2023-06-24T06:07:11;19.50;1.00
42905;DHT22;28550;51.228;4.528;2023-06-24T06:19:58;20.10;1.00
42905;DHT22;28550;51.228;4.528;2023-06-24T06:25:35;20.20;1.00
42905;DHT22;28550;51.228;4.528;2023-06-24T06:28:07;20.30;1.00
42905;DHT22;28550;51.228;4.528;2023-06-24T06:30:38;20.40;1.00
42905;DHT22;28550;51.228;4.528;2023-06-24T06:33:04;20.50;1.00
42905;DHT22;28550;51.228;4.528;2023-06-24T06:35:30;20.60;1.00
42905;DHT22;28550;51.228;4.528;2023-06-24T06:38:33;20.70;1.00
42905;DHT22;28550;51.228;4.528;2023-06-24T06:41:07;20.90;1.00
42905;DHT22;28550;51.228;4.528;2023-06-24T06:43:39;21.20;1.00
42905;DHT22;28550;51.228;4.528;2023-06-24T06:46:39;21.40;1.00
42905;DHT22;28550;51.228;4.528;2023-06-24T06:55:56;22.10;94.60
42905;DHT22;28550;51.228;4.528;2023-06-24T06:58:38;22.40;1.00
42905;DHT22;28550;51.228;4.528;2023-06-24T07:01:09;22.60;99.90
42905;DHT22;28550;51.228;4.528;2023-06-24T07:03:44;23.00;99.90
42905;DHT22;28550;51.228;4.528;2023-06-24T07:06:18;23.20;99.90
42905;DHT22;28550;51.228;4.528;2023-06-24T07:15:18;24.40;99.90
42905;DHT22;28550;51.228;4.528;2023-06-24T07:17:44;24.70;1.00
42905;DHT22;28550;51.228;4.528;2023-06-24T07:20:10;25.00;99.90
42905;DHT22;28550;51.228;4.528;2023-06-24T07:22:36;25.40;1.00
42905;DHT22;28550;51.228;4.528;2023-06-24T07:25:32;25.80;95.10
42905;DHT22;28550;51.228;4.528;2023-06-24T07:28:19;25.70;99.90
42905;DHT22;28550;51.228;4.528;2023-06-24T07:36:51;27.00;99.90
42905;DHT22;28550;51.228;4.528;2023-06-24T07:39:20;27.10;99.90
42905;DHT22;28550;51.228;4.528;2023-06-24T07:44:47;27.90;99.90
42905;DHT22;28550;51.228;4.528;2023-06-24T07:47:28;28.50;99.90
42905;DHT22;28550;51.228;4.528;2023-06-24T07:52:53;29.40;99.90
42905;DHT22;28550;51.228;4.528;2023-06-24T07:55:19;29.30;99.90
42905;DHT22;28550;51.228;4.528;2023-06-24T07:57:45;29.90;99.90
42905;DHT22;28550;51.228;4.528;2023-06-24T08:00:21;30.10;99.90
42905;DHT22;28550;51.228;4.528;2023-06-24T08:02:54;30.80;99.90
42905;DHT22;28550;51.228;4.528;2023-06-24T08:05:23;31.00;99.90
42905;DHT22;28550;51.228;4.528;2023-06-24T08:07:51;31.20;99.90
42905;DHT22;28550;51.228;4.528;2023-06-24T08:10:17;31.40;99.90
42905;DHT22;28550;51.228;4.528;2023-06-24T08:12:43;31.20;99.90
42905;DHT22;28550;51.228;4.528;2023-06-24T08:15:12;31.00;99.90
42905;DHT22;28550;51.228;4.528;2023-06-24T08:17:39;31.30;99.90
42905;DHT22;28550;51.228;4.528;2023-06-24T08:20:09;31.50;99.90
42905;DHT22;28550;51.228;4.528;2023-06-24T08:22:35;31.10;99.90
42905;DHT22;28550;51.228;4.528;2023-06-24T08:25:04;31.40;99.90
42905;DHT22;28550;51.228;4.528;2023-06-24T08:27:30;31.50;99.90
42905;DHT22;28550;51.228;4.528;2023-06-24T08:29:56;30.70;99.90
42905;DHT22;28550;51.228;4.528;2023-06-24T08:32:23;30.50;99.90
42905;DHT22;28550;51.228;4.528;2023-06-24T08:34:48;30.70;99.90
42905;DHT22;28550;51.228;4.528;2023-06-24T08:37:26;31.50;99.90
42905;DHT22;28550;51.228;4.528;2023-06-24T08:40:04;31.60;99.90
42905;DHT22;28550;51.228;4.528;2023-06-24T08:42:47;32.20;99.90
42905;DHT22;28550;51.228;4.528;2023-06-24T08:45:19;32.40;99.90
42905;DHT22;28550;51.228;4.528;2023-06-24T08:48:48;32.90;99.90
42905;DHT22;28550;51.228;4.528;2023-06-24T08:51:41;33.30;99.90
42905;DHT22;28550;51.228;4.528;2023-06-24T08:54:14;33.60;99.90
42905;DHT22;28550;51.228;4.528;2023-06-24T08:56:49;33.70;99.90
42905;DHT22;28550;51.228;4.528;2023-06-24T08:59:29;34.00;99.90
42905;DHT22;28550;51.228;4.528;2023-06-24T10:18:39;37.30;54.30
42905;DHT22;28550;51.228;4.528;2023-06-24T10:21:17;37.90;46.60
42905;DHT22;28550;51.228;4.528;2023-06-24T10:24:10;37.70;31.60
42905;DHT22;28550;51.228;4.528;2023-06-24T10:27:20;38.50;48.60
42905;DHT22;28550;51.228;4.528;2023-06-24T10:33:16;38.00;43.50
42905;DHT22;28550;51.228;4.528;2023-06-24T10:42:55;36.90;40.50
42905;DHT22;28550;51.228;4.528;2023-06-24T11:09:40;39.80;23.50
42905;DHT22;28550;51.228;4.528;2023-06-24T11:12:15;39.80;24.20
42905;DHT22;28550;51.228;4.528;2023-06-24T11:14:46;39.70;10.70
42905;DHT22;28550;51.228;4.528;2023-06-24T11:17:12;39.70;1.00
42905;DHT22;28550;51.228;4.528;2023-06-24T11:19:45;40.00;1.00
42905;DHT22;28550;51.228;4.528;2023-06-24T11:22:21;40.80;8.50
42905;DHT22;28550;51.228;4.528;2023-06-24T11:24:55;40.90;16.80
42905;DHT22;28550;51.228;4.528;2023-06-24T11:27:28;40.90;1.00
42905;DHT22;28550;51.228;4.528;2023-06-24T12:27:37;41.90;6.90
42905;DHT22;28550;51.228;4.528;2023-06-24T12:34:14;42.70;1.00
42905;DHT22;28550;51.228;4.528;2023-06-24T12:36:40;43.00;1.00
42905;DHT22;28550;51.228;4.528;2023-06-24T12:39:18;42.30;1.00
42905;DHT22;28550;51.228;4.528;2023-06-24T12:41:53;41.30;1.00
42905;DHT22;28550;51.228;4.528;2023-06-24T12:47:33;41.40;1.00
42905;DHT22;28550;51.228;4.528;2023-06-24T12:50:27;41.10;1.00
42905;DHT22;28550;51.228;4.528;2023-06-24T12:52:53;41.10;1.00
42905;DHT22;28550;51.228;4.528;2023-06-24T12:55:20;41.10;1.00
42905;DHT22;28550;51.228;4.528;2023-06-24T12:57:46;41.60;1.00
42905;DHT22;28550;51.228;4.528;2023-06-24T13:00:24;41.90;1.00
42905;DHT22;28550;51.228;4.528;2023-06-24T13:02:51;42.40;1.00
42905;DHT22;28550;51.228;4.528;2023-06-24T13:05:17;42.90;1.00
42905;DHT22;28550;51.228;4.528;2023-06-24T13:07:49;42.20;1.00
42905;DHT22;28550;51.228;4.528;2023-06-24T13:10:15;42.70;1.00
42905;DHT22;28550;51.228;4.528;2023-06-24T13:12:41;42.70;1.00
42905;DHT22;28550;51.228;4.528;2023-06-24T13:15:10;42.90;1.00
42905;DHT22;28550;51.228;4.528;2023-06-24T13:17:40;42.90;1.00
42905;DHT22;28550;51.228;4.528;2023-06-24T13:20:10;42.40;1.00
42905;DHT22;28550;51.228;4.528;2023-06-24T13:22:36;42.10;1.00
42905;DHT22;28550;51.228;4.528;2023-06-24T13:25:04;42.50;1.00
42905;DHT22;28550;51.228;4.528;2023-06-24T13:27:31;43.10;1.00
42905;DHT22;28550;51.228;4.528;2023-06-24T13:30:34;42.90;1.00
42905;DHT22;28550;51.228;4.528;2023-06-24T13:33:03;43.10;1.00
42905;DHT22;28550;51.228;4.528;2023-06-24T13:35:37;43.20;1.00
42905;DHT22;28550;51.228;4.528;2023-06-24T14:01:02;43.10;1.00
42905;DHT22;28550;51.228;4.528;2023-06-24T14:03:46;43.00;1.00
42905;DHT22;28550;51.228;4.528;2023-06-24T14:06:25;43.30;1.00
42905;DHT22;28550;51.228;4.528;2023-06-24T14:12:36;43.60;1.00
42905;DHT22;28550;51.228;4.528;2023-06-24T14:15:17;42.90;1.00
42905;DHT22;28550;51.228;4.528;2023-06-24T14:18:34;42.40;1.00
42905;DHT22;28550;51.228;4.528;2023-06-24T14:28:56;42.50;1.00
42905;DHT22;28550;51.228;4.528;2023-06-24T14:36:44;41.60;1.00
42905;DHT22;28550;51.228;4.528;2023-06-24T14:39:12;41.40;1.00
42905;DHT22;28550;51.228;4.528;2023-06-24T15:08:20;41.50;1.00
42905;DHT22;28550;51.228;4.528;2023-06-24T15:11:08;41.00;1.00
42905;DHT22;28550;51.228;4.528;2023-06-24T15:13:34;40.40;1.00
42905;DHT22;28550;51.228;4.528;2023-06-24T15:21:45;40.40;1.00
42905;DHT22;28550;51.228;4.528;2023-06-24T15:24:21;40.70;1.00
42905;DHT22;28550;51.228;4.528;2023-06-24T15:29:22;41.00;1.00
42905;DHT22;28550;51.228;4.528;2023-06-24T15:31:48;40.20;1.00
42905;DHT22;28550;51.228;4.528;2023-06-24T15:34:15;39.40;1.00
42905;DHT22;28550;51.228;4.528;2023-06-24T15:36:47;39.20;1.00
42905;DHT22;28550;51.228;4.528;2023-06-24T15:39:17;39.50;1.00
42905;DHT22;28550;51.228;4.528;2023-06-24T15:41:56;39.10;1.00
42905;DHT22;28550;51.228;4.528;2023-06-24T15:47:18;39.40;1.00
42905;DHT22;28550;51.228;4.528;2023-06-24T15:50:02;39.80;1.00
42905;DHT22;28550;51.228;4.528;2023-06-24T15:52:37;39.90;1.00
42905;DHT22;28550;51.228;4.528;2023-06-24T15:55:18;39.10;1.00
42905;DHT22;28550;51.228;4.528;2023-06-24T15:57:44;38.40;1.00
42905;DHT22;28550;51.228;4.528;2023-06-24T16:00:16;38.10;1.00
42905;DHT22;28550;51.228;4.528;2023-06-24T16:02:43;37.70;1.00
42905;DHT22;28550;51.228;4.528;2023-06-24T16:05:09;37.70;1.00
42905;DHT22;28550;51.228;4.528;2023-06-24T16:08:10;37.80;1.00
42905;DHT22;28550;51.228;4.528;2023-06-24T16:16:44;38.00;1.00
42905;DHT22;28550;51.228;4.528;2023-06-24T16:29:32;37.40;1.00
42905;DHT22;28550;51.228;4.528;2023-06-24T16:32:01;37.10;1.00
42905;DHT22;28550;51.228;4.528;2023-06-24T16:34:35;37.00;1.00
42905;DHT22;28550;51.228;4.528;2023-06-24T16:37:04;36.40;1.00
42905;DHT22;28550;51.228;4.528;2023-06-24T16:39:36;36.60;1.00
42905;DHT22;28550;51.228;4.528;2023-06-24T16:42:03;36.50;1.00
42905;DHT22;28550;51.228;4.528;2023-06-24T16:44:30;36.50;1.00
42905;DHT22;28550;51.228;4.528;2023-06-24T16:47:06;36.30;1.00
42905;DHT22;28550;51.228;4.528;2023-06-24T16:49:35;36.20;1.00
42905;DHT22;28550;51.228;4.528;2023-06-24T16:52:19;36.40;1.00
42905;DHT22;28550;51.228;4.528;2023-06-24T16:55:05;36.90;1.00
42905;DHT22;28550;51.228;4.528;2023-06-24T16:57:34;36.60;1.00
42905;DHT22;28550;51.228;4.528;2023-06-24T16:59:59;36.30;1.00
42905;DHT22;28550;51.228;4.528;2023-06-24T17:02:34;36.00;1.00
42905;DHT22;28550;51.228;4.528;2023-06-24T17:05:00;36.00;1.00
42905;DHT22;28550;51.228;4.528;2023-06-24T17:07:30;35.70;1.00
42905;DHT22;28550;51.228;4.528;2023-06-24T17:10:05;35.40;1.00
42905;DHT22;28550;51.228;4.528;2023-06-24T17:12:30;35.30;1.00
42905;DHT22;28550;51.228;4.528;2023-06-24T17:15:00;35.00;1.00
42905;DHT22;28550;51.228;4.528;2023-06-24T17:17:26;35.20;1.00
42905;DHT22;28550;51.228;4.528;2023-06-24T17:19:55;35.10;1.00
42905;DHT22;28550;51.228;4.528;2023-06-24T17:22:22;34.70;1.00
42905;DHT22;28550;51.228;4.528;2023-06-24T17:24:56;34.40;1.00
42905;DHT22;28550;51.228;4.528;2023-06-24T17:27:24;34.00;1.00
42905;DHT22;28550;51.228;4.528;2023-06-24T17:29:57;34.10;1.00
42905;DHT22;28550;51.228;4.528;2023-06-24T17:32:23;34.20;1.00
42905;DHT22;28550;51.228;4.528;2023-06-24T17:35:15;34.00;1.00
42905;DHT22;28550;51.228;4.528;2023-06-24T17:40:21;33.90;1.00
42905;DHT22;28550;51.228;4.528;2023-06-24T17:42:46;33.80;1.00
42905;DHT22;28550;51.228;4.528;2023-06-24T17:45:12;34.00;1.00
42905;DHT22;28550;51.228;4.528;2023-06-24T17:47:38;34.10;1.00
42905;DHT22;28550;51.228;4.528;2023-06-24T17:50:05;33.90;1.00
42905;DHT22;28550;51.228;4.528;2023-06-24T17:52:36;33.70;1.00
42905;DHT22;28550;51.228;4.528;2023-06-24T17:55:04;33.40;1.00
42905;DHT22;28550;51.228;4.528;2023-06-24T17:57:31;33.40;1.00
42905;DHT22;28550;51.228;4.528;2023-06-24T18:00:06;33.00;1.00
42905;DHT22;28550;51.228;4.528;2023-06-24T18:02:42;32.70;1.00
42905;DHT22;28550;51.228;4.528;2023-06-24T18:05:11;31.90;1.00
42905;DHT22;28550;51.228;4.528;2023-06-24T18:07:43;31.20;2.30
42905;DHT22;28550;51.228;4.528;2023-06-24T18:10:09;30.60;1.00
42905;DHT22;28550;51.228;4.528;2023-06-24T18:12:39;30.00;1.00
42905;DHT22;28550;51.228;4.528;2023-06-24T18:15:08;29.40;1.00
42905;DHT22;28550;51.228;4.528;2023-06-24T18:17:51;29.00;1.00
42905;DHT22;28550;51.228;4.528;2023-06-24T18:20:18;28.70;20.40
42905;DHT22;28550;51.228;4.528;2023-06-24T18:22:45;28.50;27.00
42905;DHT22;28550;51.228;4.528;2023-06-24T18:25:24;28.20;28.50
42905;DHT22;28550;51.228;4.528;2023-06-24T18:27:59;28.00;64.00
42905;DHT22;28550;51.228;4.528;2023-06-24T18:30:26;27.90;74.30
42905;DHT22;28550;51.228;4.528;2023-06-24T18:32:57;27.60;90.00
42905;DHT22;28550;51.228;4.528;2023-06-24T18:35:24;27.50;99.90
42905;DHT22;28550;51.228;4.528;2023-06-24T18:37:56;27.40;99.90
42905;DHT22;28550;51.228;4.528;2023-06-24T18:40:26;27.30;99.90
42905;DHT22;28550;51.228;4.528;2023-06-24T18:42:55;27.30;99.90
42905;DHT22;28550;51.228;4.528;2023-06-24T18:45:21;27.20;99.90
42905;DHT22;28550;51.228;4.528;2023-06-24T18:47:49;27.10;99.90
42905;DHT22;28550;51.228;4.528;2023-06-24T18:50:18;27.00;99.90
42905;DHT22;28550;51.228;4.528;2023-06-24T18:52:44;27.00;99.90
42905;DHT22;28550;51.228;4.528;2023-06-24T18:55:13;26.90;99.90
42905;DHT22;28550;51.228;4.528;2023-06-24T18:57:47;26.80;99.90
42905;DHT22;28550;51.228;4.528;2023-06-24T19:00:21;26.50;99.90
42905;DHT22;28550;51.228;4.528;2023-06-24T19:02:48;26.30;99.90
42905;DHT22;28550;51.228;4.528;2023-06-24T19:05:19;26.40;99.90
42905;DHT22;28550;51.228;4.528;2023-06-24T19:07:45;26.40;99.90
42905;DHT22;28550;51.228;4.528;2023-06-24T19:10:39;26.30;99.90
42905;DHT22;28550;51.228;4.528;2023-06-24T19:13:05;26.10;1.00
42905;DHT22;28550;51.228;4.528;2023-06-24T19:15:32;25.90;1.00
42905;DHT22;28550;51.228;4.528;2023-06-24T19:18:09;26.00;1.00
42905;DHT22;28550;51.228;4.528;2023-06-24T19:20:39;25.70;1.00
42905;DHT22;28550;51.228;4.528;2023-06-24T19:23:41;25.60;99.90
42905;DHT22;28550;51.228;4.528;2023-06-24T19:29:20;25.50;99.90
42905;DHT22;28550;51.228;4.528;2023-06-24T19:31:54;25.40;99.90
42905;DHT22;28550;51.228;4.528;2023-06-24T19:34:32;25.40;1.00
42905;DHT22;28550;51.228;4.528;2023-06-24T19:36:59;25.40;1.00
42905;DHT22;28550;51.228;4.528;2023-06-24T19:39:47;25.20;1.00
42905;DHT22;28550;51.228;4.528;2023-06-24T19:42:24;25.10;1.00
42905;DHT22;28550;51.228;4.528;2023-06-24T19:45:12;25.00;1.00
42905;DHT22;28550;51.228;4.528;2023-06-24T19:47:38;24.90;99.90
42905;DHT22;28550;51.228;4.528;2023-06-24T19:50:22;24.90;99.90
42905;DHT22;28550;51.228;4.528;2023-06-24T19:53:16;24.70;1.00
42905;DHT22;28550;51.228;4.528;2023-06-24T19:55:44;24.60;1.00
42905;DHT22;28550;51.228;4.528;2023-06-24T19:58:10;24.40;1.00
42905;DHT22;28550;51.228;4.528;2023-06-24T20:01:12;24.30;99.90
42905;DHT22;28550;51.228;4.528;2023-06-24T20:03:40;24.20;1.00
42905;DHT22;28550;51.228;4.528;2023-06-24T20:06:24;24.10;99.90
42905;DHT22;28550;51.228;4.528;2023-06-24T20:08:50;24.00;99.90
42905;DHT22;28550;51.228;4.528;2023-06-24T20:11:16;23.90;1.00
42905;DHT22;28550;51.228;4.528;2023-06-24T20:13:44;23.80;99.90
42905;DHT22;28550;51.228;4.528;2023-06-24T20:19:18;23.50;1.00
42905;DHT22;28550;51.228;4.528;2023-06-24T20:21:55;23.60;99.90
42905;DHT22;28550;51.228;4.528;2023-06-24T20:27:05;23.40;99.90
42905;DHT22;28550;51.228;4.528;2023-06-24T20:29:42;23.40;43.10
42905;DHT22;28550;51.228;4.528;2023-06-24T20:32:11;23.20;1.00
42905;DHT22;28550;51.228;4.528;2023-06-24T20:52:50;22.90;99.90
42905;DHT22;28550;51.228;4.528;2023-06-24T20:55:27;22.90;1.00
42905;DHT22;28550;51.228;4.528;2023-06-24T20:57:52;22.70;1.00
42905;DHT22;28550;51.228;4.528;2023-06-24T21:05:39;22.60;99.90
42905;DHT22;28550;51.228;4.528;2023-06-24T21:08:27;22.50;99.90
42905;DHT22;28550;51.228;4.528;2023-06-24T21:34:39;21.90;1.00
42905;DHT22;28550;51.228;4.528;2023-06-24T21:47:16;21.70;1.00
42905;DHT22;28550;51.228;4.528;2023-06-24T21:50:00;21.70;1.00
42905;DHT22;28550;51.228;4.528;2023-06-24T21:52:48;21.60;3.70
42905;DHT22;28550;51.228;4.528;2023-06-24T21:55:45;21.60;1.00
42905;DHT22;28550;51.228;4.528;2023-06-24T22:04:09;21.40;1.30
42905;DHT22;28550;51.228;4.528;2023-06-24T22:06:38;21.40;6.80
42905;DHT22;28550;51.228;4.528;2023-06-24T22:12:19;21.30;17.30
42905;DHT22;28550;51.228;4.528;2023-06-24T22:14:44;21.20;21.70
42905;DHT22;28550;51.228;4.528;2023-06-24T22:17:10;21.20;22.90
42905;DHT22;28550;51.228;4.528;2023-06-24T22:19:42;21.10;28.40
42905;DHT22;28550;51.228;4.528;2023-06-24T22:22:10;21.00;32.20
42905;DHT22;28550;51.228;4.528;2023-06-24T22:24:40;21.00;33.90
42905;DHT22;28550;51.228;4.528;2023-06-24T22:27:08;20.90;39.10
42905;DHT22;28550;51.228;4.528;2023-06-24T22:29:43;20.80;40.90
42905;DHT22;28550;51.228;4.528;2023-06-24T22:32:08;20.80;43.60
42905;DHT22;28550;51.228;4.528;2023-06-24T22:34:35;20.80;43.00
42905;DHT22;28550;51.228;4.528;2023-06-24T22:37:01;20.70;46.30
42905;DHT22;28550;51.228;4.528;2023-06-24T22:39:27;20.70;51.90
42905;DHT22;28550;51.228;4.528;2023-06-24T22:41:54;20.70;49.50
42905;DHT22;28550;51.228;4.528;2023-06-24T22:44:21;20.60;48.40
42905;DHT22;28550;51.228;4.528;2023-06-24T22:46:49;20.60;45.70
42905;DHT22;28550;51.228;4.528;2023-06-24T22:49:15;20.60;47.00
42905;DHT22;28550;51.228;4.528;2023-06-24T22:51:44;20.60;48.80
42905;DHT22;28550;51.228;4.528;2023-06-24T22:54:09;20.60;46.80
42905;DHT22;28550;51.228;4.528;2023-06-24T22:56:43;20.50;46.10
42905;DHT22;28550;51.228;4.528;2023-06-24T22:59:20;20.50;44.80
42905;DHT22;28550;51.228;4.528;2023-06-24T23:01:59;20.50;45.90
42905;DHT22;28550;51.228;4.528;2023-06-24T23:04:26;20.40;52.00
42905;DHT22;28550;51.228;4.528;2023-06-24T23:07:01;20.40;56.20
42905;DHT22;28550;51.228;4.528;2023-06-24T23:09:32;20.30;58.20
42905;DHT22;28550;51.228;4.528;2023-06-24T23:11:58;20.20;59.40
42905;DHT22;28550;51.228;4.528;2023-06-24T23:14:27;20.20;58.50
42905;DHT22;28550;51.228;4.528;2023-06-24T23:16:54;20.10;61.20
42905;DHT22;28550;51.228;4.528;2023-06-24T23:19:20;20.10;64.20
42905;DHT22;28550;51.228;4.528;2023-06-24T23:21:50;20.00;69.90
42905;DHT22;28550;51.228;4.528;2023-06-24T23:24:21;20.00;69.90
42905;DHT22;28550;51.228;4.528;2023-06-24T23:26:50;20.00;72.10
42905;DHT22;28550;51.228;4.528;2023-06-24T23:29:20;20.00;75.00
42905;DHT22;28550;51.228;4.528;2023-06-24T23:31:49;20.00;75.10
42905;DHT22;28550;51.228;4.528;2023-06-24T23:34:16;20.10;75.20
42905;DHT22;28550;51.228;4.528;2023-06-24T23:36:44;20.00;76.40
42905;DHT22;28550;51.228;4.528;2023-06-24T23:39:10;20.00;77.00
42905;DHT22;28550;51.228;4.528;2023-06-24T23:41:38;19.90;78.00
42905;DHT22;28550;51.228;4.528;2023-06-24T23:44:05;19.90;82.60
42905;DHT22;28550;51.228;4.528;2023-06-24T23:46:31;19.80;86.90
42905;DHT22;28550;51.228;4.528;2023-06-24T23:48:59;19.70;87.30
42905;DHT22;28550;51.228;4.528;2023-06-24T23:51:27;19.70;86.40
42905;DHT22;28550;51.228;4.528;2023-06-24T23:53:52;19.70;88.30
42905;DHT22;28550;51.228;4.528;2023-06-24T23:56:20;19.70;88.40
42905;DHT22;28550;51.228;4.528;2023-06-24T23:58:48;19.70;88.70
